createdAt,value
2019-05-28T00:01:18.904Z,17.20
2019-05-28T00:03:40.266Z,17.20
2019-05-28T00:06:01.600Z,17.10
2019-05-28T00:08:23.289Z,17.10
2019-05-28T00:10:44.622Z,17.20
2019-05-28T00:13:05.976Z,17.30
2019-05-28T00:15:27.313Z,17.30
2019-05-28T00:17:49.010Z,17.30
2019-05-28T00:20:10.756Z,17.30
2019-05-28T00:22:32.109Z,17.40
2019-05-28T00:24:53.497Z,17.40
2019-05-28T00:27:14.933Z,17.30
2019-05-28T00:29:36.182Z,17.40
2019-05-28T00:31:57.517Z,17.40
2019-05-28T00:34:18.901Z,17.40
2019-05-28T00:36:40.324Z,17.40
2019-05-28T00:39:01.659Z,17.30
2019-05-28T00:41:24.489Z,17.10
2019-05-28T00:43:46.150Z,17.10
2019-05-28T00:46:07.499Z,17.20
2019-05-28T00:48:28.853Z,17.20
2019-05-28T00:50:50.498Z,17.10
2019-05-28T00:53:11.821Z,17.10
2019-05-28T00:55:54.946Z,17.10
2019-05-28T00:58:17.198Z,17.00
2019-05-28T01:00:44.260Z,17.10
2019-05-28T01:03:05.862Z,17.10
2019-05-28T01:05:27.206Z,17.00
2019-05-28T01:07:48.524Z,16.90
2019-05-28T01:10:10.286Z,17.00
2019-05-28T01:12:31.613Z,16.90
2019-05-28T01:14:52.957Z,16.80
2019-05-28T01:17:14.271Z,16.80
2019-05-28T01:19:35.735Z,16.70
2019-05-28T01:21:57.080Z,16.70
2019-05-28T01:24:18.420Z,16.60
2019-05-28T01:26:39.763Z,16.50
2019-05-28T01:29:01.111Z,16.40
2019-05-28T01:31:22.557Z,16.40
2019-05-28T01:33:43.918Z,16.40
2019-05-28T01:36:05.259Z,16.40
2019-05-28T01:38:26.618Z,16.50
2019-05-28T01:40:47.948Z,16.50
2019-05-28T01:43:09.298Z,16.60
2019-05-28T01:45:30.645Z,16.60
2019-05-28T01:47:52.141Z,16.60
2019-05-28T01:50:13.721Z,16.60
2019-05-28T01:52:35.174Z,16.60
2019-05-28T01:54:56.541Z,16.60
2019-05-28T01:57:17.958Z,16.50
2019-05-28T01:59:39.307Z,16.50
2019-05-28T02:02:00.666Z,16.50
2019-05-28T02:04:22.017Z,16.40
2019-05-28T02:06:43.661Z,16.40
2019-05-28T02:09:05.926Z,16.40
2019-05-28T02:11:27.612Z,16.40
2019-05-28T02:13:48.979Z,16.40
2019-05-28T02:16:10.573Z,16.40
2019-05-28T02:18:31.904Z,16.30
2019-05-28T02:20:53.257Z,16.20
2019-05-28T02:23:14.692Z,16.20
2019-05-28T02:25:36.146Z,16.20
2019-05-28T02:27:57.481Z,16.20
2019-05-28T02:30:19.844Z,16.20
2019-05-28T02:32:41.207Z,16.20
2019-05-28T02:35:04.860Z,16.20
2019-05-28T02:37:26.386Z,16.20
2019-05-28T02:39:48.038Z,16.20
2019-05-28T02:42:09.359Z,16.20
2019-05-28T02:44:30.709Z,16.20
2019-05-28T02:46:52.261Z,16.10
2019-05-28T02:49:13.861Z,16.20
2019-05-28T02:51:35.417Z,16.20
2019-05-28T02:54:16.723Z,16.10
2019-05-28T02:56:38.669Z,16.10
2019-05-28T02:59:00.396Z,16.10
2019-05-28T03:01:22.651Z,16.10
2019-05-28T03:03:47.005Z,16.10
2019-05-28T03:06:12.326Z,16.00
2019-05-28T03:08:33.866Z,16.00
2019-05-28T03:11:03.182Z,16.00
2019-05-28T03:13:18.676Z,16.00
2019-05-28T03:15:43.724Z,16.00
2019-05-28T03:18:07.557Z,16.00
2019-05-28T03:20:30.211Z,15.90
2019-05-28T03:22:52.537Z,15.90
2019-05-28T03:25:14.085Z,15.90
2019-05-28T03:27:35.473Z,15.90
2019-05-28T03:29:56.762Z,15.80
2019-05-28T03:32:18.138Z,15.80
2019-05-28T03:34:42.078Z,15.80
2019-05-28T03:37:03.620Z,15.80
2019-05-28T03:39:25.633Z,15.70
2019-05-28T03:41:47.008Z,15.70
2019-05-28T03:44:08.353Z,15.70
2019-05-28T03:46:29.937Z,15.70
2019-05-28T03:48:51.573Z,15.70
2019-05-28T03:51:12.962Z,15.70
2019-05-28T03:53:34.292Z,15.70
2019-05-28T03:55:55.640Z,15.70
2019-05-28T03:58:16.986Z,15.60
2019-05-28T04:00:38.357Z,15.70
2019-05-28T04:03:00.921Z,15.70
2019-05-28T04:05:22.185Z,15.60
2019-05-28T04:07:43.536Z,15.70
2019-05-28T04:10:04.896Z,15.70
2019-05-28T04:12:26.237Z,15.70
2019-05-28T04:14:47.574Z,15.70
2019-05-28T04:17:09.200Z,15.60
2019-05-28T04:19:30.558Z,15.60
2019-05-28T04:21:51.945Z,15.60
2019-05-28T04:24:13.293Z,15.60
2019-05-28T04:26:34.723Z,15.60
2019-05-28T04:28:57.320Z,15.60
2019-05-28T04:31:18.962Z,15.60
2019-05-28T04:33:40.333Z,15.60
2019-05-28T04:36:02.005Z,15.60
2019-05-28T04:38:23.386Z,15.60
2019-05-28T04:40:50.969Z,15.60
2019-05-28T04:43:12.363Z,15.60
2019-05-28T04:45:33.706Z,15.60
2019-05-28T04:47:55.084Z,15.50
2019-05-28T04:50:16.770Z,15.60
2019-05-28T04:52:38.108Z,15.50
2019-05-28T04:55:00.461Z,15.60
2019-05-28T04:57:21.946Z,15.50
2019-05-28T04:59:43.346Z,15.60
2019-05-28T05:02:04.763Z,15.60
2019-05-28T05:04:26.206Z,15.60
2019-05-28T05:06:47.574Z,15.60
2019-05-28T05:09:08.914Z,15.60
2019-05-28T05:11:30.421Z,15.70
2019-05-28T05:13:51.878Z,15.60
2019-05-28T05:16:13.738Z,15.60
2019-05-28T05:18:35.133Z,15.60
2019-05-28T05:20:56.505Z,15.60
2019-05-28T05:23:37.750Z,15.60
2019-05-28T05:25:59.101Z,15.70
2019-05-28T05:28:22.906Z,15.60
2019-05-28T05:30:44.281Z,15.60
2019-05-28T05:33:19.340Z,15.60
2019-05-28T05:35:28.789Z,15.60
2019-05-28T05:37:50.389Z,15.60
2019-05-28T05:40:12.817Z,15.60
2019-05-28T05:42:34.269Z,15.60
2019-05-28T05:44:55.814Z,15.60
2019-05-28T05:47:17.222Z,15.60
2019-05-28T05:49:38.547Z,15.60
2019-05-28T05:52:04.596Z,15.60
2019-05-28T05:54:25.987Z,15.70
2019-05-28T05:56:47.455Z,15.60
2019-05-28T05:59:08.853Z,15.70
2019-05-28T06:01:30.218Z,15.70
2019-05-28T06:03:51.631Z,15.70
2019-05-28T06:06:12.967Z,15.70
2019-05-28T06:08:37.059Z,15.70
2019-05-28T06:10:57.557Z,15.70
2019-05-28T06:13:18.945Z,15.70
2019-05-28T06:15:41.020Z,15.80
2019-05-28T06:18:02.738Z,15.90
2019-05-28T06:20:24.174Z,15.90
2019-05-28T06:22:45.553Z,15.90
2019-05-28T06:25:07.245Z,16.00
2019-05-28T06:27:28.589Z,16.10
2019-05-28T06:29:50.092Z,16.10
2019-05-28T06:32:11.431Z,16.20
2019-05-28T06:34:33.011Z,16.20
2019-05-28T06:36:55.484Z,16.30
2019-05-28T06:39:16.839Z,16.30
2019-05-28T06:41:38.203Z,16.30
2019-05-28T06:43:59.557Z,16.40
2019-05-28T06:46:20.918Z,16.40
2019-05-28T06:48:42.299Z,16.50
2019-05-28T06:51:03.901Z,16.60
2019-05-28T06:53:25.343Z,16.70
2019-05-28T06:55:47.836Z,16.70
2019-05-28T06:58:09.370Z,16.60
2019-05-28T07:00:30.726Z,16.50
2019-05-28T07:02:52.422Z,16.60
2019-05-28T07:05:14.582Z,16.60
2019-05-28T07:07:35.932Z,16.70
2019-05-28T07:09:57.265Z,16.70
2019-05-28T07:12:18.646Z,16.80
2019-05-28T07:14:40.005Z,16.80
2019-05-28T07:17:01.370Z,16.70
2019-05-28T07:19:25.030Z,16.70
2019-05-28T07:21:46.012Z,16.70
2019-05-28T07:24:07.358Z,16.70
2019-05-28T07:26:28.944Z,16.80
2019-05-28T07:28:52.209Z,16.90
2019-05-28T07:31:13.541Z,17.00
2019-05-28T07:33:35.897Z,17.10
2019-05-28T07:35:58.488Z,17.20
2019-05-28T07:38:20.127Z,17.20
2019-05-28T07:40:42.103Z,17.20
2019-05-28T07:43:05.257Z,17.20
2019-05-28T07:45:26.582Z,17.30
2019-05-28T07:47:47.923Z,17.30
2019-05-28T07:50:10.609Z,17.30
2019-05-28T07:52:32.068Z,17.10
2019-05-28T07:54:53.429Z,17.20
2019-05-28T07:57:14.782Z,17.20
2019-05-28T07:59:36.172Z,17.30
2019-05-28T08:01:57.518Z,17.30
2019-05-28T08:04:18.925Z,17.40
2019-05-28T08:06:53.822Z,17.50
2019-05-28T08:09:06.020Z,17.50
2019-05-28T08:11:27.501Z,17.60
2019-05-28T08:13:52.290Z,17.60
2019-05-28T08:16:18.674Z,17.60
2019-05-28T08:18:35.539Z,17.70
2019-05-28T08:20:59.637Z,17.60
2019-05-28T08:23:21.103Z,17.60
2019-05-28T08:25:47.156Z,17.50
2019-05-28T08:28:19.371Z,17.60
2019-05-28T08:30:29.309Z,17.60
2019-05-28T08:32:52.334Z,17.60
2019-05-28T08:35:13.698Z,17.60
2019-05-28T08:37:35.145Z,17.70
2019-05-28T08:39:56.565Z,17.70
2019-05-28T08:42:20.913Z,17.80
2019-05-28T08:44:41.126Z,18.00
2019-05-28T08:47:02.496Z,17.90
2019-05-28T08:49:24.302Z,17.90
2019-05-28T08:51:45.693Z,18.00
2019-05-28T08:54:21.533Z,18.10
2019-05-28T08:56:42.876Z,18.10
2019-05-28T08:59:04.249Z,18.00
2019-05-28T09:01:27.114Z,18.00
2019-05-28T09:03:48.611Z,18.10
2019-05-28T09:06:10.038Z,18.20
2019-05-28T09:08:39.294Z,18.30
2019-05-28T09:10:55.149Z,18.40
2019-05-28T09:13:16.488Z,18.50
2019-05-28T09:15:38.557Z,18.70
2019-05-28T09:17:59.933Z,18.70
2019-05-28T09:20:21.425Z,18.80
2019-05-28T09:22:42.789Z,18.80
2019-05-28T09:25:05.463Z,18.90
2019-05-28T09:27:28.226Z,18.80
2019-05-28T09:29:50.437Z,18.80
2019-05-28T09:32:11.798Z,18.90
2019-05-28T09:34:33.195Z,18.90
2019-05-28T09:36:56.782Z,18.80
2019-05-28T09:39:18.866Z,18.80
2019-05-28T09:41:40.418Z,18.80
2019-05-28T09:44:14.853Z,18.70
2019-05-28T09:46:36.247Z,18.80
2019-05-28T09:48:57.857Z,18.60
2019-05-28T09:51:24.037Z,18.50
2019-05-28T09:53:48.332Z,18.70
2019-05-28T09:56:09.724Z,18.70
2019-05-28T09:58:31.300Z,18.70
2019-05-28T10:00:58.301Z,18.60
2019-05-28T10:03:16.899Z,18.70
2019-05-28T10:05:38.402Z,18.60
2019-05-28T10:08:00.503Z,18.60
2019-05-28T10:10:22.071Z,18.90
2019-05-28T10:12:44.680Z,19.20
2019-05-28T10:15:06.696Z,19.30
2019-05-28T10:17:28.085Z,19.40
2019-05-28T10:19:51.823Z,19.50
2019-05-28T10:22:14.194Z,19.50
2019-05-28T10:24:35.538Z,19.40
2019-05-28T10:26:57.079Z,19.30
2019-05-28T10:29:18.530Z,19.40
2019-05-28T10:31:39.886Z,19.50
2019-05-28T10:34:01.305Z,19.60
2019-05-28T10:36:35.469Z,19.70
2019-05-28T10:38:45.930Z,19.80
2019-05-28T10:41:08.573Z,19.90
2019-05-28T10:43:29.922Z,19.70
2019-05-28T10:45:51.374Z,19.60
2019-05-28T10:48:12.833Z,19.40
2019-05-28T10:50:34.593Z,19.50
2019-05-28T10:52:56.050Z,19.70
2019-05-28T10:55:17.593Z,19.70
2019-05-28T10:57:39.021Z,19.70
2019-05-28T11:00:00.856Z,19.60
2019-05-28T11:02:22.219Z,19.90
2019-05-28T11:04:46.405Z,19.90
2019-05-28T11:07:07.957Z,20.00
2019-05-28T11:09:33.245Z,20.20
2019-05-28T11:11:57.002Z,20.40
2019-05-28T11:14:18.353Z,20.50
2019-05-28T11:16:39.697Z,20.50
2019-05-28T11:19:01.182Z,20.60
2019-05-28T11:21:22.566Z,20.70
2019-05-28T11:23:46.950Z,20.70
2019-05-28T11:26:11.095Z,20.70
2019-05-28T11:28:32.890Z,20.90
2019-05-28T11:30:54.292Z,20.90
2019-05-28T11:33:17.424Z,20.90
2019-05-28T11:35:38.918Z,21.00
2019-05-28T11:38:00.363Z,21.10
2019-05-28T11:40:22.465Z,21.30
2019-05-28T11:42:43.825Z,21.40
2019-05-28T11:45:08.118Z,21.30
2019-05-28T11:47:30.252Z,21.40
2019-05-28T11:49:51.587Z,21.10
2019-05-28T11:52:12.942Z,21.10
2019-05-28T11:54:34.304Z,21.10
2019-05-28T11:56:55.838Z,21.10
2019-05-28T11:59:17.305Z,21.40
2019-05-28T12:01:39.144Z,21.50
2019-05-28T12:04:16.867Z,21.60
2019-05-28T12:06:38.559Z,21.70
2019-05-28T12:09:00.476Z,21.90
2019-05-28T12:11:21.851Z,22.00
2019-05-28T12:13:45.492Z,22.10
2019-05-28T12:16:15.834Z,22.20
2019-05-28T12:18:37.348Z,22.10
2019-05-28T12:20:58.773Z,22.30
2019-05-28T12:23:23.767Z,22.30
2019-05-28T12:25:45.193Z,22.00
2019-05-28T12:28:10.736Z,22.10
2019-05-28T12:30:34.181Z,22.30
2019-05-28T12:32:57.470Z,22.40
2019-05-28T12:35:29.413Z,22.50
2019-05-28T12:37:50.279Z,22.70
2019-05-28T12:40:12.019Z,22.60
2019-05-28T12:42:33.451Z,22.50
2019-05-28T12:45:10.287Z,22.40
2019-05-28T12:48:04.600Z,22.50
2019-05-28T12:50:20.583Z,22.60
2019-05-28T12:52:57.510Z,22.60
2019-05-28T12:55:20.358Z,22.70
2019-05-28T12:57:48.765Z,22.80
2019-05-28T13:00:15.696Z,22.90
2019-05-28T13:02:38.945Z,23.10
2019-05-28T13:05:00.413Z,23.10
2019-05-28T13:07:25.677Z,23.20
2019-05-28T13:09:49.247Z,23.30
2019-05-28T13:12:10.793Z,23.40
2019-05-28T13:14:32.643Z,23.60
2019-05-28T13:16:53.975Z,23.40
2019-05-28T13:19:15.373Z,23.50
2019-05-28T13:21:36.944Z,23.30
2019-05-28T13:23:58.331Z,22.70
2019-05-28T13:26:19.676Z,22.40
2019-05-28T13:28:41.042Z,22.40
2019-05-28T13:31:02.776Z,22.30
2019-05-28T13:33:25.442Z,22.00
2019-05-28T13:35:46.802Z,21.90
2019-05-28T13:38:25.665Z,21.80
2019-05-28T13:40:32.906Z,21.70
2019-05-28T13:42:54.251Z,21.70
2019-05-28T13:45:16.325Z,21.90
2019-05-28T13:47:37.753Z,21.90
2019-05-28T13:49:59.109Z,22.00
2019-05-28T13:52:20.428Z,22.00
2019-05-28T13:54:41.760Z,22.00
2019-05-28T13:57:03.194Z,22.10
2019-05-28T13:59:24.665Z,22.40
2019-05-28T14:01:46.011Z,22.50
2019-05-28T14:04:07.350Z,22.40
2019-05-28T14:06:28.745Z,22.60
2019-05-28T14:08:50.063Z,22.70
2019-05-28T14:11:11.434Z,22.60
2019-05-28T14:13:33.630Z,22.50
2019-05-28T14:15:54.982Z,22.50
2019-05-28T14:18:16.358Z,22.40
2019-05-28T14:20:37.671Z,22.20
2019-05-28T14:22:59.289Z,22.10
2019-05-28T14:25:20.629Z,22.10
2019-05-28T14:27:41.975Z,22.00
2019-05-28T14:30:08.539Z,21.90
2019-05-28T14:32:30.004Z,21.80
2019-05-28T14:34:52.563Z,21.70
2019-05-28T14:37:14.326Z,21.30
2019-05-28T14:39:41.200Z,21.20
2019-05-28T14:41:58.898Z,21.20
2019-05-28T14:44:20.235Z,21.00
2019-05-28T14:46:41.594Z,20.80
2019-05-28T14:49:07.296Z,21.00
2019-05-28T14:51:26.302Z,21.10
2019-05-28T14:53:47.639Z,20.90
2019-05-28T14:56:09.318Z,20.90
2019-05-28T14:58:30.631Z,20.90
2019-05-28T15:00:52.035Z,21.00
2019-05-28T15:03:13.426Z,21.10
2019-05-28T15:05:34.754Z,21.10
2019-05-28T15:07:56.123Z,21.10
2019-05-28T15:10:18.774Z,21.10
2019-05-28T15:12:40.253Z,21.10
2019-05-28T15:15:02.812Z,21.10
2019-05-28T15:17:26.593Z,21.40
2019-05-28T15:19:47.550Z,21.70
2019-05-28T15:22:08.978Z,21.70
2019-05-28T15:24:30.381Z,21.90
2019-05-28T15:26:51.968Z,21.80
2019-05-28T15:29:13.325Z,22.00
2019-05-28T15:31:35.667Z,22.00
2019-05-28T15:33:57.030Z,22.20
2019-05-28T15:36:18.431Z,22.30
2019-05-28T15:38:39.820Z,22.20
2019-05-28T15:41:01.182Z,22.20
2019-05-28T15:43:22.530Z,22.40
2019-05-28T15:45:44.198Z,22.40
2019-05-28T15:48:05.679Z,22.50
2019-05-28T15:50:27.100Z,22.40
2019-05-28T15:52:48.522Z,22.40
2019-05-28T15:55:10.333Z,22.10
2019-05-28T15:57:31.872Z,22.00
2019-05-28T15:59:53.250Z,22.10
2019-05-28T16:02:15.710Z,22.20
2019-05-28T16:04:38.446Z,22.30
2019-05-28T16:06:59.934Z,22.30
2019-05-28T16:09:21.291Z,22.20
2019-05-28T16:11:42.652Z,21.80
2019-05-28T16:14:04.503Z,21.70
2019-05-28T16:16:26.967Z,21.90
2019-05-28T16:18:48.325Z,21.70
2019-05-28T16:21:09.685Z,21.50
2019-05-28T16:23:31.065Z,21.20
2019-05-28T16:25:52.415Z,21.20
2019-05-28T16:28:13.949Z,21.00
2019-05-28T16:30:36.062Z,20.90
2019-05-28T16:32:57.653Z,20.70
2019-05-28T16:35:19.688Z,20.60
2019-05-28T16:37:41.060Z,20.60
2019-05-28T16:40:14.962Z,20.40
2019-05-28T16:42:28.087Z,20.30
2019-05-28T16:44:49.453Z,20.30
2019-05-28T16:47:17.864Z,20.40
2019-05-28T16:49:34.117Z,20.40
2019-05-28T16:51:55.480Z,20.30
2019-05-28T16:54:19.418Z,20.40
2019-05-28T16:56:40.262Z,20.40
2019-05-28T16:59:01.618Z,20.30
2019-05-28T17:01:23.521Z,20.30
2019-05-28T17:03:44.871Z,20.30
2019-05-28T17:06:06.248Z,20.40
2019-05-28T17:08:28.306Z,20.40
2019-05-28T17:10:49.655Z,20.40
2019-05-28T17:13:12.302Z,20.50
2019-05-28T17:15:33.626Z,20.40
2019-05-28T17:17:54.973Z,20.40
2019-05-28T17:20:17.087Z,20.30
2019-05-28T17:22:38.401Z,20.20
2019-05-28T17:25:00.954Z,20.30
2019-05-28T17:27:22.694Z,20.10
2019-05-28T17:29:44.141Z,20.10
2019-05-28T17:32:05.545Z,20.10
2019-05-28T17:34:26.929Z,20.10
2019-05-28T17:36:48.355Z,20.10
2019-05-28T17:39:09.765Z,20.10
2019-05-28T17:41:31.215Z,20.10
2019-05-28T17:43:52.578Z,20.10
2019-05-28T17:46:13.922Z,20.00
2019-05-28T17:48:35.443Z,19.90
2019-05-28T17:50:56.791Z,19.80
2019-05-28T17:53:18.163Z,19.70
2019-05-28T17:55:39.497Z,19.40
2019-05-28T17:58:00.877Z,19.30
2019-05-28T18:00:22.234Z,19.30
2019-05-28T18:02:43.854Z,19.20
2019-05-28T18:05:06.335Z,19.30
2019-05-28T18:07:27.996Z,19.10
2019-05-28T18:09:51.788Z,19.10
2019-05-28T18:12:13.177Z,19.00
2019-05-28T18:14:34.466Z,19.00
2019-05-28T18:16:55.859Z,19.00
2019-05-28T18:19:17.252Z,19.00
2019-05-28T18:21:38.648Z,18.90
2019-05-28T18:24:00.002Z,18.80
2019-05-28T18:26:21.379Z,18.70
2019-05-28T18:28:42.740Z,18.60
2019-05-28T18:31:04.070Z,18.60
2019-05-28T18:33:25.566Z,18.60
2019-05-28T18:35:47.262Z,18.40
2019-05-28T18:38:08.918Z,18.30
2019-05-28T18:40:30.417Z,18.30
2019-05-28T18:42:51.831Z,18.10
2019-05-28T18:45:13.663Z,18.00
2019-05-28T18:47:35.330Z,17.90
2019-05-28T18:50:02.687Z,18.00
2019-05-28T18:52:21.392Z,18.00
2019-05-28T18:54:42.757Z,17.90
2019-05-28T18:57:04.876Z,17.90
2019-05-28T18:59:26.422Z,17.80
2019-05-28T19:01:47.987Z,17.80
2019-05-28T19:04:09.668Z,17.80
2019-05-28T19:06:31.158Z,17.70
2019-05-28T19:08:52.619Z,17.70
2019-05-28T19:11:13.975Z,17.70
2019-05-28T19:13:35.381Z,17.70
2019-05-28T19:15:56.788Z,17.70
2019-05-28T19:18:19.335Z,17.60
2019-05-28T19:20:42.975Z,17.40
2019-05-28T19:23:06.499Z,17.40
2019-05-28T19:25:29.925Z,17.30
2019-05-28T19:27:51.426Z,17.40
2019-05-28T19:30:13.411Z,17.30
2019-05-28T19:32:35.051Z,17.30
2019-05-28T19:34:56.662Z,17.20
2019-05-28T19:37:18.202Z,17.30
2019-05-28T19:39:40.404Z,17.30
2019-05-28T19:42:01.714Z,17.20
2019-05-28T19:44:23.141Z,17.20
2019-05-28T19:46:44.410Z,17.20
2019-05-28T19:49:06.144Z,17.20
2019-05-28T19:51:27.719Z,17.20
2019-05-28T19:53:49.047Z,17.20
2019-05-28T19:56:10.250Z,17.20
2019-05-28T19:58:31.683Z,17.20
2019-05-28T20:00:52.977Z,17.20
2019-05-28T20:03:14.220Z,17.20
2019-05-28T20:05:35.454Z,17.10
2019-05-28T20:07:56.694Z,17.10
2019-05-28T20:10:18.491Z,17.10
2019-05-28T20:12:39.773Z,17.10
2019-05-28T20:15:01.190Z,17.00
2019-05-28T20:17:22.475Z,17.00
2019-05-28T20:19:43.767Z,17.00
2019-05-28T20:22:04.977Z,16.90
2019-05-28T20:24:26.186Z,16.80
2019-05-28T20:26:47.664Z,16.80
2019-05-28T20:29:09.244Z,16.70
2019-05-28T20:31:30.524Z,16.80
2019-05-28T20:33:51.798Z,16.80
2019-05-28T20:36:13.119Z,16.70
2019-05-28T20:38:34.694Z,16.70
2019-05-28T20:40:55.927Z,16.60
2019-05-28T20:43:17.140Z,16.60
2019-05-28T20:45:38.450Z,16.50
2019-05-28T20:48:00.479Z,16.50
2019-05-28T20:50:21.882Z,16.40
2019-05-28T20:52:43.073Z,16.40
2019-05-28T20:55:04.982Z,16.40
2019-05-28T20:57:26.293Z,16.30
2019-05-28T20:59:47.494Z,16.40
2019-05-28T21:02:09.071Z,16.30
2019-05-28T21:04:30.814Z,16.30
2019-05-28T21:06:52.176Z,16.20
2019-05-28T21:09:13.486Z,16.10
2019-05-28T21:11:34.785Z,16.20
2019-05-28T21:13:56.763Z,16.20
2019-05-28T21:16:18.049Z,16.10
2019-05-28T21:18:39.282Z,16.20
2019-05-28T21:21:00.487Z,16.20
2019-05-28T21:23:21.989Z,16.10
2019-05-28T21:25:43.214Z,16.10
2019-05-28T21:28:04.416Z,16.10
2019-05-28T21:30:25.638Z,16.10
2019-05-28T21:32:46.950Z,16.10
2019-05-28T21:35:08.978Z,16.10
2019-05-28T21:37:30.201Z,16.00
2019-05-28T21:39:51.452Z,16.00
2019-05-28T21:42:12.727Z,15.90
2019-05-28T21:44:33.914Z,15.90
2019-05-28T21:46:56.239Z,15.90
2019-05-28T21:49:17.645Z,15.90
2019-05-28T21:51:39.162Z,15.90
2019-05-28T21:54:01.533Z,15.90
2019-05-28T21:56:23.005Z,15.90
2019-05-28T21:58:44.218Z,15.90
2019-05-28T22:01:18.251Z,15.90
2019-05-28T22:03:39.432Z,15.90
2019-05-28T22:06:01.457Z,15.90
2019-05-28T22:08:22.707Z,15.80
2019-05-28T22:10:44.957Z,15.80
2019-05-28T22:13:18.224Z,15.90
2019-05-28T22:15:31.847Z,15.80
2019-05-28T22:17:53.099Z,15.80
2019-05-28T22:20:14.663Z,15.80
2019-05-28T22:22:35.898Z,15.80
2019-05-28T22:24:58.478Z,15.80
2019-05-28T22:27:19.777Z,15.80
2019-05-28T22:29:40.980Z,15.70
2019-05-28T22:32:02.852Z,15.70
2019-05-28T22:34:24.329Z,15.70
2019-05-28T22:36:45.595Z,15.60
2019-05-28T22:39:07.069Z,15.60
2019-05-28T22:41:28.413Z,15.60
2019-05-28T22:43:49.614Z,15.50
2019-05-28T22:46:10.855Z,15.60
2019-05-28T22:48:32.138Z,15.60
2019-05-28T22:50:53.342Z,15.70
2019-05-28T22:53:14.557Z,15.70
2019-05-28T22:55:35.781Z,15.70
2019-05-28T22:57:58.091Z,15.70
2019-05-28T23:00:19.799Z,15.70
2019-05-28T23:02:41.256Z,15.70
2019-05-28T23:05:05.155Z,15.60
2019-05-28T23:07:26.523Z,15.60
2019-05-28T23:09:47.727Z,15.60
2019-05-28T23:12:10.054Z,15.60
2019-05-28T23:14:31.436Z,15.60
2019-05-28T23:16:52.641Z,15.60
2019-05-28T23:19:14.529Z,15.60
2019-05-28T23:21:35.770Z,15.60
2019-05-28T23:23:57.042Z,15.60
2019-05-28T23:26:18.321Z,15.60
2019-05-28T23:28:40.550Z,15.50
2019-05-28T23:31:01.861Z,15.50
2019-05-28T23:33:23.145Z,15.40
2019-05-28T23:35:44.322Z,15.40
2019-05-28T23:38:05.540Z,15.30
2019-05-28T23:40:26.728Z,15.30
2019-05-28T23:42:47.925Z,15.20
2019-05-28T23:45:11.841Z,15.10
2019-05-28T23:47:33.138Z,15.10
2019-05-28T23:49:54.340Z,15.20
2019-05-28T23:52:16.875Z,15.20
2019-05-28T23:54:38.337Z,15.20
2019-05-28T23:56:59.544Z,15.10
2019-05-28T23:59:20.746Z,15.10
